createdAt,value
2023-01-29T00:01:24.921Z,81.87
2023-01-29T00:03:52.677Z,81.81
2023-01-29T00:06:19.933Z,81.79
2023-01-29T00:08:50.969Z,81.95
2023-01-29T00:11:20.596Z,82.12
2023-01-29T00:13:48.097Z,82.38
2023-01-29T00:16:15.759Z,82.33
2023-01-29T00:18:43.873Z,82.26
2023-01-29T00:21:12.305Z,82.13
2023-01-29T00:23:39.397Z,82.03
2023-01-29T00:26:06.969Z,82.08
2023-01-29T00:28:34.445Z,82.26
2023-01-29T00:31:12.651Z,82.11
2023-01-29T00:33:39.887Z,82.04
2023-01-29T00:36:10.475Z,81.88
2023-01-29T00:38:37.588Z,81.83
2023-01-29T00:41:36.762Z,81.94
2023-01-29T00:44:23.151Z,82.15
2023-01-29T00:46:50.226Z,82.22
2023-01-29T00:49:17.247Z,82.32
2023-01-29T00:58:05.430Z,82.36
2023-01-29T01:00:33.034Z,82.29
2023-01-29T01:03:06.132Z,82.21
2023-01-29T01:05:33.540Z,82.23
2023-01-29T01:08:00.691Z,82.43
2023-01-29T01:10:32.581Z,82.64
2023-01-29T01:13:01.823Z,82.45
2023-01-29T01:15:31.814Z,82.36
2023-01-29T01:18:00.218Z,82.15
2023-01-29T01:20:30.264Z,81.99
2023-01-29T01:22:57.408Z,82.21
2023-01-29T01:25:25.273Z,82.37
2023-01-29T01:27:57.386Z,82.40
2023-01-29T01:30:24.698Z,82.31
2023-01-29T01:32:51.883Z,82.35
2023-01-29T01:35:19.220Z,82.29
2023-01-29T01:37:46.393Z,82.46
2023-01-29T01:40:18.688Z,82.40
2023-01-29T01:42:49.667Z,82.56
2023-01-29T01:45:22.232Z,82.52
2023-01-29T01:48:13.461Z,82.83
2023-01-29T01:50:46.071Z,82.97
2023-01-29T01:53:15.376Z,82.98
2023-01-29T01:55:45.571Z,82.78
2023-01-29T01:58:25.640Z,82.83
2023-01-29T02:00:53.320Z,82.98
2023-01-29T02:03:39.453Z,82.97
2023-01-29T02:06:25.409Z,82.83
2023-01-29T02:09:30.791Z,82.61
2023-01-29T02:11:58.454Z,82.43
2023-01-29T02:14:26.011Z,82.52
2023-01-29T02:16:53.264Z,82.60
2023-01-29T02:19:34.067Z,82.54
2023-01-29T02:22:35.224Z,82.43
2023-01-29T02:25:25.495Z,82.24
2023-01-29T02:28:17.837Z,82.34
2023-01-29T02:30:58.841Z,82.45
2023-01-29T02:33:32.217Z,82.48
2023-01-29T02:36:14.544Z,82.57
2023-01-29T02:39:02.053Z,82.43
2023-01-29T02:41:39.718Z,82.47
2023-01-29T02:44:14.995Z,82.55
2023-01-29T02:46:53.666Z,82.72
2023-01-29T02:49:25.157Z,82.80
2023-01-29T02:52:01.985Z,82.79
2023-01-29T02:54:42.188Z,82.82
2023-01-29T02:57:31.894Z,82.89
2023-01-29T03:00:02.430Z,82.91
2023-01-29T03:02:46.168Z,82.98
2023-01-29T03:05:20.468Z,83.08
2023-01-29T03:07:54.116Z,82.84
2023-01-29T03:10:44.059Z,82.89
2023-01-29T03:13:42.186Z,83.04
2023-01-29T03:16:23.247Z,82.83
2023-01-29T03:18:55.233Z,82.75
2023-01-29T03:21:47.998Z,82.85
2023-01-29T03:25:09.612Z,82.93
2023-01-29T03:28:02.750Z,83.23
2023-01-29T03:30:54.382Z,83.28
2023-01-29T03:34:08.321Z,83.38
2023-01-29T03:36:45.792Z,83.42
2023-01-29T03:39:14.092Z,83.41
2023-01-29T03:41:56.147Z,83.45
2023-01-29T03:45:22.716Z,83.38
2023-01-29T03:48:03.827Z,83.57
2023-01-29T03:50:32.935Z,83.62
2023-01-29T03:53:24.240Z,83.77
2023-01-29T03:56:02.421Z,83.35
2023-01-29T03:58:36.857Z,83.08
2023-01-29T04:01:12.503Z,83.04
2023-01-29T04:04:02.915Z,82.97
2023-01-29T04:06:31.500Z,82.99
2023-01-29T04:09:03.955Z,82.87
2023-01-29T04:11:31.677Z,82.72
2023-01-29T04:13:58.590Z,82.77
2023-01-29T04:16:28.602Z,82.80
2023-01-29T04:19:06.552Z,83.02
2023-01-29T04:21:37.658Z,83.09
2023-01-29T04:24:06.059Z,82.89
2023-01-29T04:26:37.389Z,82.74
2023-01-29T04:29:23.105Z,82.91
2023-01-29T04:32:53.459Z,83.00
2023-01-29T04:35:36.350Z,82.81
2023-01-29T04:38:21.158Z,82.86
2023-01-29T04:40:56.892Z,82.87
2023-01-29T04:43:32.984Z,82.68
2023-01-29T04:46:17.654Z,82.64
2023-01-29T04:49:05.139Z,82.77
2023-01-29T04:51:37.381Z,82.67
2023-01-29T04:54:12.543Z,82.59
2023-01-29T04:56:51.350Z,82.70
2023-01-29T04:59:45.554Z,82.86
2023-01-29T05:02:13.719Z,82.72
2023-01-29T05:04:41.626Z,82.70
2023-01-29T05:07:11.446Z,82.72
2023-01-29T05:09:40.211Z,82.84
2023-01-29T05:12:07.722Z,82.99
2023-01-29T05:14:35.249Z,83.01
2023-01-29T05:17:03.736Z,82.62
2023-01-29T05:19:32.370Z,82.55
2023-01-29T05:21:59.264Z,82.67
2023-01-29T05:24:26.879Z,82.75
2023-01-29T05:27:16.048Z,82.76
2023-01-29T05:29:45.485Z,82.92
2023-01-29T05:32:12.582Z,83.03
2023-01-29T05:34:43.729Z,83.14
2023-01-29T05:37:11.425Z,82.94
2023-01-29T05:39:38.429Z,82.89
2023-01-29T05:42:05.369Z,82.90
2023-01-29T05:44:33.414Z,82.82
2023-01-29T05:47:02.851Z,82.90
2023-01-29T05:49:29.945Z,83.21
2023-01-29T05:51:57.183Z,83.32
2023-01-29T05:54:24.379Z,83.61
2023-01-29T05:56:51.234Z,83.45
2023-01-29T05:59:18.154Z,83.36
2023-01-29T06:01:45.366Z,83.55
2023-01-29T06:04:12.691Z,83.81
2023-01-29T06:06:41.525Z,84.25
2023-01-29T06:09:10.866Z,84.38
2023-01-29T06:11:37.716Z,84.52
2023-01-29T06:14:05.158Z,84.88
2023-01-29T06:16:32.065Z,85.09
2023-01-29T06:18:59.131Z,85.29
2023-01-29T06:21:26.103Z,85.40
2023-01-29T06:23:53.872Z,85.39
2023-01-29T06:26:21.048Z,85.59
2023-01-29T06:28:51.610Z,86.00
2023-01-29T06:34:07.465Z,86.35
2023-01-29T06:36:34.594Z,86.59
2023-01-29T06:39:01.683Z,86.83
2023-01-29T06:41:28.818Z,86.94
2023-01-29T06:43:55.828Z,87.14
2023-01-29T06:46:22.774Z,87.46
2023-01-29T06:48:49.666Z,87.64
2023-01-29T06:51:17.321Z,87.85
2023-01-29T06:53:46.211Z,88.52
2023-01-29T06:56:13.934Z,88.68
2023-01-29T10:53:02.565Z,83.36
2023-01-29T10:55:32.170Z,83.01
2023-01-29T10:58:37.384Z,82.97
2023-01-29T11:01:04.051Z,83.25
2023-01-29T11:03:40.904Z,83.26
2023-01-29T11:06:11.403Z,83.38
2023-01-29T16:53:21.160Z,84.76
2023-01-29T16:55:49.236Z,84.60
2023-01-29T16:58:17.200Z,84.77
2023-01-29T17:00:45.360Z,84.84
2023-01-29T17:03:11.837Z,84.85
2023-01-29T17:05:38.245Z,84.66
2023-01-29T17:08:05.727Z,84.52
2023-01-29T17:10:32.235Z,84.53
2023-01-29T17:13:05.227Z,84.56
2023-01-29T17:15:42.891Z,84.75
2023-01-29T17:18:17.795Z,84.68
2023-01-29T17:20:44.035Z,84.67
2023-01-29T17:23:10.409Z,84.65
2023-01-29T17:25:36.579Z,84.59
2023-01-29T17:28:03.184Z,84.51
2023-01-29T17:30:33.960Z,84.26
2023-01-29T17:33:02.236Z,84.04
2023-01-29T17:35:28.773Z,83.74
2023-01-29T17:37:54.952Z,83.67
2023-01-29T17:40:28.044Z,83.59
2023-01-29T17:42:54.216Z,83.80
2023-01-29T17:45:20.564Z,83.88
2023-01-29T17:47:46.815Z,83.63
2023-01-29T17:50:17.415Z,83.60
2023-01-29T17:52:44.307Z,83.51
2023-01-29T17:55:10.729Z,83.52
2023-01-29T17:57:37.568Z,83.53
2023-01-29T18:00:12.837Z,83.56
2023-01-29T18:02:40.790Z,83.58
2023-01-29T18:05:07.428Z,83.61
2023-01-29T18:07:34.440Z,83.88
2023-01-29T18:10:01.037Z,84.22
2023-01-29T18:12:27.323Z,84.60
2023-01-29T18:14:53.942Z,84.66
2023-01-29T18:17:21.857Z,84.86
2023-01-29T18:19:48.687Z,85.24
2023-01-29T18:22:15.205Z,85.72
2023-01-29T18:24:41.685Z,85.95
2023-01-29T18:27:08.378Z,85.96
2023-01-29T18:29:35.827Z,86.14
2023-01-29T18:32:02.360Z,86.45
2023-01-29T18:34:28.755Z,87.07
2023-01-29T18:36:54.922Z,87.39
2023-01-29T18:39:21.060Z,87.34
2023-01-29T18:41:47.227Z,87.39
2023-01-29T18:44:13.508Z,87.47
2023-01-29T18:46:39.861Z,87.60
2023-01-29T18:49:06.242Z,87.65
2023-01-29T18:51:32.729Z,87.66
2023-01-29T18:53:58.992Z,87.66
2023-01-29T18:56:25.404Z,87.70
2023-01-29T18:58:56.060Z,87.88
2023-01-29T19:01:23.537Z,88.06
2023-01-29T19:03:49.996Z,88.05
2023-01-29T19:06:16.291Z,87.90
2023-01-29T19:08:43.363Z,88.03
2023-01-29T19:11:11.773Z,87.97
2023-01-29T19:13:39.865Z,88.05
2023-01-29T19:16:09.392Z,87.99
2023-01-29T19:18:36.149Z,88.04
2023-01-29T19:21:07.908Z,88.05
2023-01-29T19:23:36.172Z,88.13
2023-01-29T19:26:02.441Z,88.18
2023-01-29T19:28:28.823Z,88.29
2023-01-29T19:30:58.908Z,88.25
2023-01-29T19:33:27.088Z,88.07
2023-01-29T19:35:57.166Z,88.05
2023-01-29T19:38:23.525Z,88.21
2023-01-29T19:40:50.232Z,88.31
2023-01-29T19:43:19.479Z,88.31
2023-01-29T19:45:50.773Z,88.16
2023-01-29T19:48:20.590Z,88.18
2023-01-29T19:50:56.746Z,88.22
2023-01-29T19:53:23.089Z,88.41
2023-01-29T19:56:19.330Z,88.59
2023-01-29T19:58:46.361Z,88.47
2023-01-29T20:01:17.407Z,88.63
2023-01-29T20:03:47.085Z,88.75
2023-01-29T20:06:15.212Z,88.90
2023-01-29T20:08:41.744Z,88.74
2023-01-29T20:11:09.195Z,88.36
2023-01-29T20:13:35.609Z,88.45
2023-01-29T20:16:03.338Z,88.62
2023-01-29T20:18:32.148Z,88.96
2023-01-29T20:20:58.651Z,89.09
2023-01-29T20:23:37.157Z,89.26
2023-01-29T20:26:07.313Z,89.43
2023-01-29T20:28:34.548Z,89.48
2023-01-29T20:31:00.990Z,89.23
2023-01-29T20:33:27.477Z,89.02
2023-01-29T20:35:54.654Z,88.96
2023-01-29T20:38:21.083Z,88.91
2023-01-29T20:40:47.248Z,88.79
2023-01-29T20:43:13.649Z,88.62
2023-01-29T20:45:39.795Z,88.35
2023-01-29T20:48:07.344Z,88.13
2023-01-29T20:50:34.540Z,88.08
2023-01-29T20:53:00.966Z,88.22
2023-01-29T20:55:27.276Z,88.57
2023-01-29T20:58:06.378Z,88.53
2023-01-29T21:00:33.298Z,88.62
2023-01-29T21:02:59.660Z,88.74
2023-01-29T21:05:25.937Z,88.68
2023-01-29T21:07:55.649Z,88.69
2023-01-29T21:10:21.931Z,88.50
2023-01-29T21:12:48.452Z,88.28
2023-01-29T21:15:14.748Z,88.13
2023-01-29T21:17:41.000Z,87.92
2023-01-29T21:20:08.290Z,88.08
2023-01-29T21:22:36.045Z,88.24
2023-01-29T21:25:02.271Z,88.39
2023-01-29T21:27:28.826Z,88.30
2023-01-29T21:29:57.332Z,88.02
2023-01-29T21:32:23.720Z,87.88
2023-01-29T21:34:56.488Z,88.00
2023-01-29T21:37:22.740Z,88.18
2023-01-29T21:39:49.735Z,88.08
2023-01-29T21:42:34.380Z,87.97
2023-01-29T21:45:00.549Z,87.97
2023-01-29T21:47:26.731Z,88.16
2023-01-29T21:49:52.905Z,88.23
2023-01-29T21:52:19.150Z,88.27
2023-01-29T21:54:48.224Z,88.23
2023-01-29T21:57:14.956Z,88.16
2023-01-29T21:59:42.036Z,88.26
2023-01-29T22:02:14.561Z,88.31
2023-01-29T22:04:41.704Z,88.36
2023-01-29T22:07:09.490Z,88.35
2023-01-29T22:09:36.399Z,88.27
2023-01-29T22:12:03.519Z,88.22
2023-01-29T22:14:30.861Z,88.39
2023-01-29T22:16:57.332Z,88.38
2023-01-29T22:19:24.684Z,88.39
2023-01-29T22:21:52.387Z,88.37
2023-01-29T22:24:19.915Z,88.52
2023-01-29T22:26:48.554Z,88.68
2023-01-29T22:29:16.450Z,88.65
2023-01-29T22:31:43.353Z,88.72
2023-01-29T22:34:10.285Z,88.89
2023-01-29T22:36:36.577Z,88.81
2023-01-29T22:39:02.883Z,88.81
2023-01-29T22:41:32.941Z,88.93
2023-01-29T22:43:59.910Z,89.01
2023-01-29T22:46:26.094Z,88.87
2023-01-29T22:48:53.212Z,88.83
2023-01-29T22:51:19.629Z,88.80
2023-01-29T22:53:54.116Z,89.09
2023-01-29T22:56:21.616Z,88.99
2023-01-29T22:58:55.197Z,88.89
2023-01-29T23:01:26.424Z,88.97
2023-01-29T23:03:54.240Z,89.03
2023-01-29T23:06:23.268Z,89.03
2023-01-29T23:08:49.812Z,89.01
2023-01-29T23:11:19.362Z,89.04
2023-01-29T23:13:47.299Z,88.88
2023-01-29T23:16:14.084Z,88.91
2023-01-29T23:18:40.502Z,89.02
2023-01-29T23:21:07.014Z,88.95
2023-01-29T23:23:34.177Z,88.89
2023-01-29T23:26:20.214Z,88.85
2023-01-29T23:28:46.514Z,88.43
2023-01-29T23:31:13.062Z,88.32
2023-01-29T23:33:39.843Z,88.12
2023-01-29T23:36:06.514Z,87.65
2023-01-29T23:38:32.908Z,87.26
2023-01-29T23:40:59.501Z,86.96
2023-01-29T23:43:26.433Z,87.03
2023-01-29T23:45:52.901Z,87.21
2023-01-29T23:48:19.780Z,87.35
2023-01-29T23:50:47.733Z,87.27
2023-01-29T23:53:13.879Z,87.42
2023-01-29T23:55:41.039Z,87.56
2023-01-29T23:58:07.237Z,87.63
